sensor_id;sensor_type;location;lat;lon;timestamp;P1;durP1;ratioP1;P2;durP2;ratioP2
83646;SDS011;73609;50.134;14.376;2023-12-29T00:00:05;3.9;;;2.3;;
83646;SDS011;73609;50.134;14.376;2023-12-29T00:02:05;4.2;;;2.5;;
83646;SDS011;73609;50.134;14.376;2023-12-29T07:26:06;2.8;;;1.8;;
83646;SDS011;73609;50.134;14.376;2023-12-29T07:28:05;3.6;;;2.0;;
83646;SDS011;73609;50.134;14.376;2023-12-29T07:30:05;2.8;;;1.9;;
83646;SDS011;73609;50.134;14.376;2023-12-29T07:32:05;3.4;;;1.8;;
83646;SDS011;73609;50.134;14.376;2023-12-29T07:34:05;3.1;;;1.7;;
83646;SDS011;73609;50.134;14.376;2023-12-29T07:36:05;3.2;;;1.6;;
83646;SDS011;73609;50.134;14.376;2023-12-29T07:38:06;3.1;;;1.8;;
83646;SDS011;73609;50.134;14.376;2023-12-29T07:40:05;3.7;;;1.8;;
83646;SDS011;73609;50.134;14.376;2023-12-29T07:42:05;3.7;;;1.9;;
83646;SDS011;73609;50.134;14.376;2023-12-29T07:44:05;3.0;;;1.9;;
83646;SDS011;73609;50.134;14.376;2023-12-29T07:46:05;3.0;;;1.7;;
83646;SDS011;73609;50.134;14.376;2023-12-29T07:48:05;3.7;;;2.5;;
83646;SDS011;73609;50.134;14.376;2023-12-29T07:50:07;5.1;;;3.3;;
83646;SDS011;73609;50.134;14.376;2023-12-29T07:52:05;3.0;;;1.9;;
83646;SDS011;73609;50.134;14.376;2023-12-29T07:54:05;3.1;;;2.0;;
83646;SDS011;73609;50.134;14.376;2023-12-29T07:56:05;4.5;;;2.8;;
83646;SDS011;73609;50.134;14.376;2023-12-29T07:58:05;3.6;;;2.0;;
83646;SDS011;73609;50.134;14.376;2023-12-29T08:00:05;3.0;;;2.3;;
83646;SDS011;73609;50.134;14.376;2023-12-29T08:02:05;4.4;;;1.7;;
83646;SDS011;73609;50.134;14.376;2023-12-29T08:04:05;3.5;;;1.9;;
83646;SDS011;73609;50.134;14.376;2023-12-29T08:06:05;3.1;;;1.7;;
83646;SDS011;73609;50.134;14.376;2023-12-29T08:08:05;3.3;;;1.8;;
83646;SDS011;73609;50.134;14.376;2023-12-29T08:10:05;3.4;;;1.7;;
83646;SDS011;73609;50.134;14.376;2023-12-29T08:12:05;3.1;;;1.8;;
83646;SDS011;73609;50.134;14.376;2023-12-29T08:14:06;3.6;;;2.0;;
83646;SDS011;73609;50.134;14.376;2023-12-29T08:16:05;3.1;;;1.7;;
83646;SDS011;73609;50.134;14.376;2023-12-29T08:18:05;4.1;;;2.4;;
83646;SDS011;73609;50.134;14.376;2023-12-29T08:20:05;3.2;;;1.9;;
83646;SDS011;73609;50.134;14.376;2023-12-29T08:22:05;3.2;;;1.9;;
83646;SDS011;73609;50.134;14.376;2023-12-29T08:24:05;3.0;;;1.8;;
83646;SDS011;73609;50.134;14.376;2023-12-29T08:26:05;3.3;;;1.9;;
83646;SDS011;73609;50.134;14.376;2023-12-29T08:28:05;4.0;;;1.8;;
83646;SDS011;73609;50.134;14.376;2023-12-29T08:30:05;2.7;;;1.9;;
83646;SDS011;73609;50.134;14.376;2023-12-29T08:32:05;3.9;;;1.9;;
83646;SDS011;73609;50.134;14.376;2023-12-29T08:34:05;3.9;;;2.2;;
83646;SDS011;73609;50.134;14.376;2023-12-29T08:36:05;3.1;;;1.8;;
83646;SDS011;73609;50.134;14.376;2023-12-29T08:38:05;3.3;;;2.1;;
83646;SDS011;73609;50.134;14.376;2023-12-29T08:40:05;5.0;;;3.0;;
83646;SDS011;73609;50.134;14.376;2023-12-29T08:42:05;3.3;;;1.9;;
83646;SDS011;73609;50.134;14.376;2023-12-29T08:44:05;4.3;;;1.9;;
83646;SDS011;73609;50.134;14.376;2023-12-29T08:46:05;3.2;;;1.8;;
83646;SDS011;73609;50.134;14.376;2023-12-29T08:48:05;3.8;;;1.7;;
83646;SDS011;73609;50.134;14.376;2023-12-29T08:50:07;3.2;;;1.8;;
83646;SDS011;73609;50.134;14.376;2023-12-29T08:52:05;2.2;;;1.6;;
83646;SDS011;73609;50.134;14.376;2023-12-29T08:54:05;2.9;;;1.7;;
83646;SDS011;73609;50.134;14.376;2023-12-29T08:56:05;3.1;;;2.1;;
83646;SDS011;73609;50.134;14.376;2023-12-29T08:58:05;3.3;;;1.9;;
83646;SDS011;73609;50.134;14.376;2023-12-29T09:00:05;3.0;;;1.9;;
83646;SDS011;73609;50.134;14.376;2023-12-29T09:02:05;2.9;;;1.8;;
83646;SDS011;73609;50.134;14.376;2023-12-29T09:04:05;3.5;;;2.0;;
83646;SDS011;73609;50.134;14.376;2023-12-29T09:06:05;3.0;;;1.8;;
83646;SDS011;73609;50.134;14.376;2023-12-29T09:08:05;3.5;;;1.8;;
83646;SDS011;73609;50.134;14.376;2023-12-29T09:10:05;4.3;;;1.9;;
83646;SDS011;73609;50.134;14.376;2023-12-29T09:12:05;3.1;;;1.9;;
83646;SDS011;73609;50.134;14.376;2023-12-29T09:14:06;3.8;;;2.0;;
83646;SDS011;73609;50.134;14.376;2023-12-29T09:16:05;3.4;;;1.9;;
83646;SDS011;73609;50.134;14.376;2023-12-29T09:18:05;3.2;;;1.7;;
83646;SDS011;73609;50.134;14.376;2023-12-29T09:20:05;3.2;;;2.2;;
83646;SDS011;73609;50.134;14.376;2023-12-29T09:22:05;3.0;;;1.5;;
83646;SDS011;73609;50.134;14.376;2023-12-29T09:24:05;4.0;;;1.8;;
83646;SDS011;73609;50.134;14.376;2023-12-29T09:26:06;2.8;;;1.7;;
83646;SDS011;73609;50.134;14.376;2023-12-29T09:28:05;3.0;;;1.8;;
83646;SDS011;73609;50.134;14.376;2023-12-29T09:30:05;2.5;;;1.5;;
83646;SDS011;73609;50.134;14.376;2023-12-29T09:32:05;3.8;;;2.4;;
83646;SDS011;73609;50.134;14.376;2023-12-29T09:34:05;3.6;;;1.8;;
83646;SDS011;73609;50.134;14.376;2023-12-29T09:36:05;4.4;;;1.8;;
83646;SDS011;73609;50.134;14.376;2023-12-29T09:38:05;4.3;;;1.7;;
83646;SDS011;73609;50.134;14.376;2023-12-29T09:40:07;3.2;;;1.6;;
83646;SDS011;73609;50.134;14.376;2023-12-29T09:42:05;3.4;;;1.7;;
83646;SDS011;73609;50.134;14.376;2023-12-29T09:44:05;3.3;;;1.7;;
83646;SDS011;73609;50.134;14.376;2023-12-29T09:46:05;3.3;;;1.7;;
83646;SDS011;73609;50.134;14.376;2023-12-29T09:48:06;2.7;;;1.7;;
83646;SDS011;73609;50.134;14.376;2023-12-29T09:50:05;3.4;;;1.6;;
83646;SDS011;73609;50.134;14.376;2023-12-29T09:52:06;4.0;;;1.8;;
83646;SDS011;73609;50.134;14.376;2023-12-29T09:54:05;2.6;;;1.7;;
83646;SDS011;73609;50.134;14.376;2023-12-29T09:56:07;3.4;;;1.7;;
83646;SDS011;73609;50.134;14.376;2023-12-29T09:58:05;3.0;;;1.7;;
83646;SDS011;73609;50.134;14.376;2023-12-29T10:00:05;3.0;;;1.6;;
83646;SDS011;73609;50.134;14.376;2023-12-29T10:02:05;2.3;;;1.4;;
83646;SDS011;73609;50.134;14.376;2023-12-29T10:04:06;3.1;;;1.7;;
83646;SDS011;73609;50.134;14.376;2023-12-29T10:06:06;2.9;;;1.6;;
83646;SDS011;73609;50.134;14.376;2023-12-29T10:08:05;3.0;;;1.7;;
83646;SDS011;73609;50.134;14.376;2023-12-29T10:10:05;2.8;;;1.6;;
83646;SDS011;73609;50.134;14.376;2023-12-29T10:12:05;3.2;;;1.9;;
83646;SDS011;73609;50.134;14.376;2023-12-29T10:14:09;2.5;;;1.5;;
83646;SDS011;73609;50.134;14.376;2023-12-29T10:16:13;3.2;;;1.6;;
83646;SDS011;73609;50.134;14.376;2023-12-29T10:22:11;2.9;;;1.7;;
83646;SDS011;73609;50.134;14.376;2023-12-29T10:24:07;2.6;;;1.5;;
83646;SDS011;73609;50.134;14.376;2023-12-29T10:26:05;2.1;;;1.4;;
83646;SDS011;73609;50.134;14.376;2023-12-29T10:28:05;3.0;;;1.7;;
83646;SDS011;73609;50.134;14.376;2023-12-29T10:30:05;2.9;;;1.6;;
83646;SDS011;73609;50.134;14.376;2023-12-29T10:32:05;2.4;;;1.5;;
83646;SDS011;73609;50.134;14.376;2023-12-29T10:34:21;2.8;;;1.5;;
83646;SDS011;73609;50.134;14.376;2023-12-29T10:36:05;2.7;;;1.5;;
83646;SDS011;73609;50.134;14.376;2023-12-29T10:38:08;2.5;;;1.6;;
83646;SDS011;73609;50.134;14.376;2023-12-29T10:40:07;2.4;;;1.6;;
83646;SDS011;73609;50.134;14.376;2023-12-29T10:42:05;2.7;;;1.5;;
83646;SDS011;73609;50.134;14.376;2023-12-29T10:44:06;2.3;;;1.6;;
83646;SDS011;73609;50.134;14.376;2023-12-29T10:46:05;2.5;;;1.3;;
83646;SDS011;73609;50.134;14.376;2023-12-29T10:48:05;2.2;;;1.5;;
83646;SDS011;73609;50.134;14.376;2023-12-29T10:50:05;2.7;;;1.4;;
83646;SDS011;73609;50.134;14.376;2023-12-29T10:52:15;2.1;;;1.4;;
83646;SDS011;73609;50.134;14.376;2023-12-29T10:54:05;2.2;;;1.3;;
83646;SDS011;73609;50.134;14.376;2023-12-29T10:56:05;3.4;;;1.5;;
83646;SDS011;73609;50.134;14.376;2023-12-29T10:58:05;3.2;;;1.6;;
83646;SDS011;73609;50.134;14.376;2023-12-29T11:00:05;2.3;;;1.5;;
83646;SDS011;73609;50.134;14.376;2023-12-29T11:02:05;2.9;;;1.5;;
83646;SDS011;73609;50.134;14.376;2023-12-29T11:04:05;2.1;;;1.4;;
83646;SDS011;73609;50.134;14.376;2023-12-29T11:06:05;2.4;;;1.5;;
83646;SDS011;73609;50.134;14.376;2023-12-29T11:08:05;2.5;;;1.4;;
83646;SDS011;73609;50.134;14.376;2023-12-29T11:10:07;2.6;;;1.4;;
83646;SDS011;73609;50.134;14.376;2023-12-29T11:12:05;2.3;;;1.3;;
83646;SDS011;73609;50.134;14.376;2023-12-29T11:14:05;2.3;;;1.4;;
83646;SDS011;73609;50.134;14.376;2023-12-29T11:16:05;2.2;;;1.3;;
83646;SDS011;73609;50.134;14.376;2023-12-29T11:18:05;2.9;;;1.3;;
83646;SDS011;73609;50.134;14.376;2023-12-29T11:20:05;2.5;;;1.5;;
83646;SDS011;73609;50.134;14.376;2023-12-29T11:22:05;2.4;;;1.4;;
83646;SDS011;73609;50.134;14.376;2023-12-29T11:24:05;2.8;;;1.2;;
83646;SDS011;73609;50.134;14.376;2023-12-29T11:26:05;2.6;;;1.4;;
83646;SDS011;73609;50.134;14.376;2023-12-29T11:28:06;2.2;;;1.3;;
83646;SDS011;73609;50.134;14.376;2023-12-29T11:30:05;3.3;;;1.3;;
83646;SDS011;73609;50.134;14.376;2023-12-29T11:32:06;2.8;;;1.3;;
83646;SDS011;73609;50.134;14.376;2023-12-29T11:34:07;3.1;;;1.3;;
83646;SDS011;73609;50.134;14.376;2023-12-29T11:36:13;2.4;;;1.3;;
83646;SDS011;73609;50.134;14.376;2023-12-29T11:38:11;2.6;;;1.2;;
83646;SDS011;73609;50.134;14.376;2023-12-29T11:44:05;1.5;;;1.1;;
83646;SDS011;73609;50.134;14.376;2023-12-29T11:46:05;1.6;;;1.0;;
83646;SDS011;73609;50.134;14.376;2023-12-29T11:48:05;2.2;;;1.1;;
83646;SDS011;73609;50.134;14.376;2023-12-29T11:50:05;2.0;;;1.1;;
83646;SDS011;73609;50.134;14.376;2023-12-29T11:52:05;2.3;;;1.2;;
83646;SDS011;73609;50.134;14.376;2023-12-29T11:54:05;2.0;;;1.2;;
83646;SDS011;73609;50.134;14.376;2023-12-29T11:56:14;2.7;;;1.7;;
83646;SDS011;73609;50.134;14.376;2023-12-29T11:58:23;2.2;;;1.2;;
83646;SDS011;73609;50.134;14.376;2023-12-29T12:00:06;2.0;;;1.0;;
83646;SDS011;73609;50.134;14.376;2023-12-29T12:02:05;2.5;;;1.1;;
83646;SDS011;73609;50.134;14.376;2023-12-29T12:06:05;2.7;;;1.1;;
83646;SDS011;73609;50.134;14.376;2023-12-29T12:08:05;1.3;;;0.8;;
83646;SDS011;73609;50.134;14.376;2023-12-29T12:12:05;2.1;;;1.3;;
83646;SDS011;73609;50.134;14.376;2023-12-29T12:14:05;1.9;;;1.0;;
83646;SDS011;73609;50.134;14.376;2023-12-29T12:16:05;2.1;;;1.3;;
83646;SDS011;73609;50.134;14.376;2023-12-29T12:18:05;1.5;;;1.0;;
83646;SDS011;73609;50.134;14.376;2023-12-29T12:20:06;2.4;;;1.2;;
83646;SDS011;73609;50.134;14.376;2023-12-29T12:22:05;2.3;;;1.3;;
83646;SDS011;73609;50.134;14.376;2023-12-29T12:24:05;2.5;;;1.1;;
83646;SDS011;73609;50.134;14.376;2023-12-29T12:26:05;2.0;;;1.2;;
83646;SDS011;73609;50.134;14.376;2023-12-29T12:28:05;2.4;;;1.0;;
83646;SDS011;73609;50.134;14.376;2023-12-29T12:30:05;3.1;;;1.2;;
83646;SDS011;73609;50.134;14.376;2023-12-29T12:32:05;1.9;;;1.1;;
83646;SDS011;73609;50.134;14.376;2023-12-29T12:34:05;2.3;;;1.7;;
83646;SDS011;73609;50.134;14.376;2023-12-29T12:36:05;3.5;;;1.4;;
83646;SDS011;73609;50.134;14.376;2023-12-29T12:38:06;2.9;;;1.3;;
83646;SDS011;73609;50.134;14.376;2023-12-29T12:40:05;3.1;;;1.9;;
83646;SDS011;73609;50.134;14.376;2023-12-29T12:42:05;4.7;;;2.3;;
83646;SDS011;73609;50.134;14.376;2023-12-29T12:44:13;2.8;;;1.4;;
83646;SDS011;73609;50.134;14.376;2023-12-29T12:46:05;2.7;;;1.6;;
83646;SDS011;73609;50.134;14.376;2023-12-29T12:48:13;2.6;;;1.4;;
83646;SDS011;73609;50.134;14.376;2023-12-29T12:50:05;3.1;;;1.4;;
83646;SDS011;73609;50.134;14.376;2023-12-29T12:52:05;2.7;;;1.4;;
83646;SDS011;73609;50.134;14.376;2023-12-29T12:54:05;3.8;;;2.4;;
83646;SDS011;73609;50.134;14.376;2023-12-29T12:56:05;2.8;;;1.6;;
83646;SDS011;73609;50.134;14.376;2023-12-29T12:58:05;2.6;;;1.5;;
83646;SDS011;73609;50.134;14.376;2023-12-29T13:00:05;3.5;;;2.5;;
83646;SDS011;73609;50.134;14.376;2023-12-29T13:02:05;2.8;;;1.7;;
83646;SDS011;73609;50.134;14.376;2023-12-29T13:04:06;2.2;;;1.4;;
83646;SDS011;73609;50.134;14.376;2023-12-29T13:06:05;2.9;;;1.7;;
83646;SDS011;73609;50.134;14.376;2023-12-29T13:08:05;4.1;;;2.1;;
83646;SDS011;73609;50.134;14.376;2023-12-29T13:10:05;2.2;;;1.2;;
83646;SDS011;73609;50.134;14.376;2023-12-29T13:12:08;2.5;;;1.5;;
83646;SDS011;73609;50.134;14.376;2023-12-29T13:14:05;2.2;;;1.6;;
83646;SDS011;73609;50.134;14.376;2023-12-29T13:16:05;2.4;;;1.3;;
83646;SDS011;73609;50.134;14.376;2023-12-29T13:18:05;3.2;;;1.3;;
83646;SDS011;73609;50.134;14.376;2023-12-29T13:20:05;2.2;;;1.2;;
83646;SDS011;73609;50.134;14.376;2023-12-29T13:22:05;1.8;;;1.1;;
83646;SDS011;73609;50.134;14.376;2023-12-29T13:24:05;1.9;;;1.1;;
83646;SDS011;73609;50.134;14.376;2023-12-29T13:26:05;2.2;;;1.1;;
83646;SDS011;73609;50.134;14.376;2023-12-29T13:28:06;1.8;;;1.0;;
83646;SDS011;73609;50.134;14.376;2023-12-29T13:30:05;1.7;;;1.1;;
83646;SDS011;73609;50.134;14.376;2023-12-29T13:32:14;2.6;;;1.1;;
83646;SDS011;73609;50.134;14.376;2023-12-29T13:34:06;1.8;;;1.0;;
83646;SDS011;73609;50.134;14.376;2023-12-29T13:36:07;1.6;;;1.0;;
83646;SDS011;73609;50.134;14.376;2023-12-29T13:38:08;2.0;;;1.0;;
83646;SDS011;73609;50.134;14.376;2023-12-29T13:42:05;2.1;;;0.9;;
83646;SDS011;73609;50.134;14.376;2023-12-29T13:44:05;2.2;;;1.0;;
83646;SDS011;73609;50.134;14.376;2023-12-29T13:46:05;1.5;;;0.9;;
83646;SDS011;73609;50.134;14.376;2023-12-29T13:48:05;1.9;;;1.1;;
83646;SDS011;73609;50.134;14.376;2023-12-29T13:50:05;2.0;;;0.9;;
83646;SDS011;73609;50.134;14.376;2023-12-29T13:52:05;2.5;;;1.0;;
83646;SDS011;73609;50.134;14.376;2023-12-29T13:54:05;1.9;;;1.1;;
83646;SDS011;73609;50.134;14.376;2023-12-29T13:56:06;1.9;;;1.1;;
83646;SDS011;73609;50.134;14.376;2023-12-29T13:58:08;2.2;;;1.2;;
83646;SDS011;73609;50.134;14.376;2023-12-29T14:04:08;1.8;;;0.9;;
83646;SDS011;73609;50.134;14.376;2023-12-29T14:06:07;2.7;;;0.9;;
83646;SDS011;73609;50.134;14.376;2023-12-29T14:10:05;1.8;;;0.9;;
83646;SDS011;73609;50.134;14.376;2023-12-29T14:12:05;1.4;;;0.8;;
83646;SDS011;73609;50.134;14.376;2023-12-29T14:14:05;2.8;;;0.8;;
83646;SDS011;73609;50.134;14.376;2023-12-29T14:16:05;1.6;;;0.8;;
83646;SDS011;73609;50.134;14.376;2023-12-29T14:18:09;1.9;;;1.1;;
83646;SDS011;73609;50.134;14.376;2023-12-29T14:20:06;2.5;;;1.2;;
83646;SDS011;73609;50.134;14.376;2023-12-29T14:22:05;3.3;;;1.5;;
83646;SDS011;73609;50.134;14.376;2023-12-29T14:26:05;1.9;;;1.0;;
83646;SDS011;73609;50.134;14.376;2023-12-29T14:28:20;2.1;;;1.2;;
83646;SDS011;73609;50.134;14.376;2023-12-29T14:30:16;1.8;;;1.1;;
83646;SDS011;73609;50.134;14.376;2023-12-29T14:32:05;2.8;;;1.0;;
83646;SDS011;73609;50.134;14.376;2023-12-29T14:34:05;1.8;;;1.2;;
83646;SDS011;73609;50.134;14.376;2023-12-29T14:36:05;1.5;;;1.0;;
83646;SDS011;73609;50.134;14.376;2023-12-29T14:38:05;2.2;;;1.1;;
83646;SDS011;73609;50.134;14.376;2023-12-29T14:40:05;2.8;;;1.2;;
83646;SDS011;73609;50.134;14.376;2023-12-29T14:42:05;2.7;;;1.5;;
83646;SDS011;73609;50.134;14.376;2023-12-29T14:44:05;2.3;;;1.3;;
83646;SDS011;73609;50.134;14.376;2023-12-29T14:46:05;4.8;;;1.5;;
83646;SDS011;73609;50.134;14.376;2023-12-29T14:48:05;3.9;;;1.4;;
83646;SDS011;73609;50.134;14.376;2023-12-29T14:50:05;2.9;;;1.5;;
83646;SDS011;73609;50.134;14.376;2023-12-29T14:52:05;2.6;;;1.4;;
83646;SDS011;73609;50.134;14.376;2023-12-29T14:54:05;2.5;;;1.3;;
83646;SDS011;73609;50.134;14.376;2023-12-29T14:56:05;2.9;;;1.3;;
83646;SDS011;73609;50.134;14.376;2023-12-29T14:58:05;2.2;;;1.4;;
83646;SDS011;73609;50.134;14.376;2023-12-29T15:00:05;2.8;;;1.4;;
83646;SDS011;73609;50.134;14.376;2023-12-29T15:02:05;3.9;;;1.4;;
83646;SDS011;73609;50.134;14.376;2023-12-29T15:04:05;2.1;;;1.2;;
83646;SDS011;73609;50.134;14.376;2023-12-29T15:06:05;2.4;;;1.3;;
83646;SDS011;73609;50.134;14.376;2023-12-29T15:08:05;2.7;;;1.3;;
83646;SDS011;73609;50.134;14.376;2023-12-29T15:10:05;4.1;;;1.9;;
83646;SDS011;73609;50.134;14.376;2023-12-29T15:12:05;5.0;;;2.5;;
83646;SDS011;73609;50.134;14.376;2023-12-29T15:14:05;6.3;;;3.4;;
83646;SDS011;73609;50.134;14.376;2023-12-29T15:16:06;3.0;;;1.6;;
83646;SDS011;73609;50.134;14.376;2023-12-29T15:18:05;3.8;;;1.8;;
83646;SDS011;73609;50.134;14.376;2023-12-29T15:20:05;5.4;;;2.6;;
83646;SDS011;73609;50.134;14.376;2023-12-29T15:22:05;3.7;;;1.9;;
83646;SDS011;73609;50.134;14.376;2023-12-29T15:24:05;3.8;;;2.0;;
83646;SDS011;73609;50.134;14.376;2023-12-29T15:26:05;2.4;;;1.5;;
83646;SDS011;73609;50.134;14.376;2023-12-29T15:28:06;2.7;;;1.5;;
83646;SDS011;73609;50.134;14.376;2023-12-29T15:30:05;2.4;;;1.5;;
83646;SDS011;73609;50.134;14.376;2023-12-29T15:32:05;2.3;;;1.6;;
83646;SDS011;73609;50.134;14.376;2023-12-29T15:34:05;1.9;;;1.2;;
83646;SDS011;73609;50.134;14.376;2023-12-29T15:36:05;3.4;;;1.4;;
83646;SDS011;73609;50.134;14.376;2023-12-29T15:38:05;2.3;;;1.5;;
83646;SDS011;73609;50.134;14.376;2023-12-29T15:40:05;2.8;;;1.5;;
83646;SDS011;73609;50.134;14.376;2023-12-29T15:42:05;2.8;;;1.8;;
83646;SDS011;73609;50.134;14.376;2023-12-29T15:44:05;2.6;;;1.6;;
83646;SDS011;73609;50.134;14.376;2023-12-29T15:46:13;3.1;;;2.0;;
83646;SDS011;73609;50.134;14.376;2023-12-29T15:48:05;4.0;;;1.8;;
83646;SDS011;73609;50.134;14.376;2023-12-29T15:50:05;3.8;;;2.3;;
83646;SDS011;73609;50.134;14.376;2023-12-29T15:52:05;2.7;;;1.7;;
83646;SDS011;73609;50.134;14.376;2023-12-29T15:54:05;4.0;;;2.2;;
83646;SDS011;73609;50.134;14.376;2023-12-29T15:56:05;5.4;;;3.4;;
83646;SDS011;73609;50.134;14.376;2023-12-29T15:58:05;3.5;;;2.1;;
83646;SDS011;73609;50.134;14.376;2023-12-29T16:00:05;3.1;;;2.1;;
83646;SDS011;73609;50.134;14.376;2023-12-29T16:02:05;4.8;;;2.7;;
83646;SDS011;73609;50.134;14.376;2023-12-29T16:04:05;4.4;;;2.8;;
83646;SDS011;73609;50.134;14.376;2023-12-29T16:06:05;3.6;;;2.0;;
83646;SDS011;73609;50.134;14.376;2023-12-29T16:08:05;3.7;;;1.8;;
83646;SDS011;73609;50.134;14.376;2023-12-29T16:10:05;3.5;;;2.3;;
83646;SDS011;73609;50.134;14.376;2023-12-29T16:12:05;3.0;;;1.7;;
83646;SDS011;73609;50.134;14.376;2023-12-29T16:14:05;4.1;;;1.8;;
83646;SDS011;73609;50.134;14.376;2023-12-29T16:16:05;3.9;;;2.2;;
83646;SDS011;73609;50.134;14.376;2023-12-29T16:18:05;2.7;;;1.7;;
83646;SDS011;73609;50.134;14.376;2023-12-29T16:20:05;3.4;;;2.0;;
83646;SDS011;73609;50.134;14.376;2023-12-29T16:22:05;2.4;;;1.6;;
83646;SDS011;73609;50.134;14.376;2023-12-29T16:24:06;3.1;;;1.9;;
83646;SDS011;73609;50.134;14.376;2023-12-29T16:26:05;3.2;;;1.8;;
83646;SDS011;73609;50.134;14.376;2023-12-29T16:28:05;2.8;;;1.7;;
83646;SDS011;73609;50.134;14.376;2023-12-29T16:30:05;2.3;;;1.6;;
83646;SDS011;73609;50.134;14.376;2023-12-29T16:32:05;2.9;;;1.8;;
83646;SDS011;73609;50.134;14.376;2023-12-29T16:34:05;2.3;;;1.7;;
83646;SDS011;73609;50.134;14.376;2023-12-29T16:36:13;2.4;;;1.7;;
83646;SDS011;73609;50.134;14.376;2023-12-29T16:38:05;3.3;;;1.8;;
83646;SDS011;73609;50.134;14.376;2023-12-29T16:40:06;3.5;;;1.6;;
83646;SDS011;73609;50.134;14.376;2023-12-29T16:42:05;3.1;;;1.8;;
83646;SDS011;73609;50.134;14.376;2023-12-29T16:44:05;2.3;;;1.4;;
83646;SDS011;73609;50.134;14.376;2023-12-29T16:46:05;3.4;;;1.5;;
83646;SDS011;73609;50.134;14.376;2023-12-29T16:48:05;2.7;;;1.6;;
83646;SDS011;73609;50.134;14.376;2023-12-29T16:50:05;3.0;;;1.7;;
83646;SDS011;73609;50.134;14.376;2023-12-29T16:52:06;3.0;;;1.9;;
83646;SDS011;73609;50.134;14.376;2023-12-29T16:54:05;3.1;;;1.6;;
83646;SDS011;73609;50.134;14.376;2023-12-29T16:56:05;4.7;;;2.0;;
83646;SDS011;73609;50.134;14.376;2023-12-29T16:58:05;3.0;;;1.8;;
83646;SDS011;73609;50.134;14.376;2023-12-29T17:00:05;3.9;;;2.1;;
83646;SDS011;73609;50.134;14.376;2023-12-29T17:02:05;3.3;;;2.0;;
83646;SDS011;73609;50.134;14.376;2023-12-29T17:04:05;4.1;;;2.2;;
83646;SDS011;73609;50.134;14.376;2023-12-29T17:06:05;3.2;;;2.1;;
83646;SDS011;73609;50.134;14.376;2023-12-29T17:08:05;3.4;;;2.1;;
83646;SDS011;73609;50.134;14.376;2023-12-29T17:10:05;3.0;;;2.1;;
83646;SDS011;73609;50.134;14.376;2023-12-29T17:12:05;5.1;;;2.1;;
83646;SDS011;73609;50.134;14.376;2023-12-29T17:14:05;3.0;;;1.8;;
83646;SDS011;73609;50.134;14.376;2023-12-29T17:16:05;3.6;;;2.0;;
83646;SDS011;73609;50.134;14.376;2023-12-29T17:18:05;3.5;;;2.0;;
83646;SDS011;73609;50.134;14.376;2023-12-29T17:20:05;3.3;;;1.9;;
83646;SDS011;73609;50.134;14.376;2023-12-29T17:22:05;3.7;;;2.0;;
83646;SDS011;73609;50.134;14.376;2023-12-29T17:24:05;3.3;;;2.1;;
83646;SDS011;73609;50.134;14.376;2023-12-29T17:26:09;3.9;;;2.0;;
83646;SDS011;73609;50.134;14.376;2023-12-29T17:28:05;2.9;;;2.0;;
83646;SDS011;73609;50.134;14.376;2023-12-29T17:30:05;3.0;;;1.8;;
83646;SDS011;73609;50.134;14.376;2023-12-29T17:32:05;4.1;;;2.1;;
83646;SDS011;73609;50.134;14.376;2023-12-29T17:34:05;4.0;;;2.3;;
83646;SDS011;73609;50.134;14.376;2023-12-29T17:36:08;5.2;;;2.1;;
83646;SDS011;73609;50.134;14.376;2023-12-29T17:38:05;3.2;;;2.1;;
83646;SDS011;73609;50.134;14.376;2023-12-29T17:40:06;3.3;;;1.9;;
83646;SDS011;73609;50.134;14.376;2023-12-29T17:42:05;3.9;;;2.4;;
83646;SDS011;73609;50.134;14.376;2023-12-29T17:44:05;3.6;;;2.1;;
83646;SDS011;73609;50.134;14.376;2023-12-29T17:46:05;4.8;;;2.3;;
83646;SDS011;73609;50.134;14.376;2023-12-29T17:48:05;3.6;;;2.1;;
83646;SDS011;73609;50.134;14.376;2023-12-29T17:50:05;3.9;;;2.2;;
83646;SDS011;73609;50.134;14.376;2023-12-29T17:52:06;4.0;;;2.2;;
83646;SDS011;73609;50.134;14.376;2023-12-29T17:54:05;3.6;;;2.1;;
83646;SDS011;73609;50.134;14.376;2023-12-29T17:56:05;3.8;;;2.5;;
83646;SDS011;73609;50.134;14.376;2023-12-29T17:58:05;4.8;;;2.2;;
83646;SDS011;73609;50.134;14.376;2023-12-29T18:00:05;3.1;;;2.0;;
83646;SDS011;73609;50.134;14.376;2023-12-29T18:02:05;4.4;;;2.1;;
83646;SDS011;73609;50.134;14.376;2023-12-29T18:04:05;3.4;;;2.2;;
83646;SDS011;73609;50.134;14.376;2023-12-29T18:06:05;4.8;;;2.1;;
83646;SDS011;73609;50.134;14.376;2023-12-29T18:08:05;3.7;;;2.2;;
83646;SDS011;73609;50.134;14.376;2023-12-29T18:10:05;4.9;;;2.3;;
83646;SDS011;73609;50.134;14.376;2023-12-29T18:12:05;4.4;;;2.4;;
83646;SDS011;73609;50.134;14.376;2023-12-29T18:14:05;3.7;;;2.3;;
83646;SDS011;73609;50.134;14.376;2023-12-29T18:16:07;3.3;;;2.0;;
83646;SDS011;73609;50.134;14.376;2023-12-29T18:18:05;3.6;;;2.2;;
83646;SDS011;73609;50.134;14.376;2023-12-29T18:20:05;3.0;;;1.8;;
83646;SDS011;73609;50.134;14.376;2023-12-29T18:22:05;3.6;;;1.8;;
83646;SDS011;73609;50.134;14.376;2023-12-29T18:24:05;3.3;;;1.9;;
83646;SDS011;73609;50.134;14.376;2023-12-29T18:26:05;4.1;;;2.1;;
83646;SDS011;73609;50.134;14.376;2023-12-29T18:28:05;4.5;;;2.2;;
83646;SDS011;73609;50.134;14.376;2023-12-29T18:30:05;3.1;;;2.0;;
83646;SDS011;73609;50.134;14.376;2023-12-29T18:32:05;3.1;;;1.9;;
83646;SDS011;73609;50.134;14.376;2023-12-29T18:34:05;3.6;;;2.0;;
83646;SDS011;73609;50.134;14.376;2023-12-29T18:36:05;3.8;;;2.0;;
83646;SDS011;73609;50.134;14.376;2023-12-29T18:38:05;4.2;;;2.5;;
83646;SDS011;73609;50.134;14.376;2023-12-29T18:40:05;4.6;;;2.3;;
83646;SDS011;73609;50.134;14.376;2023-12-29T18:42:05;5.2;;;2.8;;
83646;SDS011;73609;50.134;14.376;2023-12-29T18:44:05;5.1;;;3.0;;
83646;SDS011;73609;50.134;14.376;2023-12-29T18:46:06;6.0;;;3.4;;
83646;SDS011;73609;50.134;14.376;2023-12-29T18:48:05;4.9;;;3.0;;
83646;SDS011;73609;50.134;14.376;2023-12-29T18:50:05;3.9;;;2.4;;
83646;SDS011;73609;50.134;14.376;2023-12-29T18:52:06;3.9;;;2.8;;
83646;SDS011;73609;50.134;14.376;2023-12-29T18:54:05;3.7;;;2.2;;
83646;SDS011;73609;50.134;14.376;2023-12-29T18:56:06;4.1;;;2.1;;
83646;SDS011;73609;50.134;14.376;2023-12-29T18:58:05;4.1;;;2.1;;
83646;SDS011;73609;50.134;14.376;2023-12-29T19:00:05;3.5;;;2.1;;
83646;SDS011;73609;50.134;14.376;2023-12-29T19:02:05;4.1;;;2.1;;
83646;SDS011;73609;50.134;14.376;2023-12-29T19:04:05;4.4;;;2.1;;
83646;SDS011;73609;50.134;14.376;2023-12-29T19:06:05;4.1;;;2.1;;
83646;SDS011;73609;50.134;14.376;2023-12-29T19:08:05;3.7;;;2.3;;
83646;SDS011;73609;50.134;14.376;2023-12-29T19:10:05;3.6;;;2.1;;
83646;SDS011;73609;50.134;14.376;2023-12-29T19:12:05;2.9;;;2.0;;
83646;SDS011;73609;50.134;14.376;2023-12-29T19:14:05;4.5;;;2.2;;
83646;SDS011;73609;50.134;14.376;2023-12-29T19:16:05;4.0;;;2.0;;
83646;SDS011;73609;50.134;14.376;2023-12-29T19:18:05;2.8;;;1.9;;
83646;SDS011;73609;50.134;14.376;2023-12-29T19:20:05;3.1;;;2.0;;
83646;SDS011;73609;50.134;14.376;2023-12-29T19:22:05;3.1;;;2.1;;
83646;SDS011;73609;50.134;14.376;2023-12-29T19:24:05;4.7;;;2.1;;
83646;SDS011;73609;50.134;14.376;2023-12-29T19:26:05;3.6;;;1.8;;
83646;SDS011;73609;50.134;14.376;2023-12-29T19:28:05;3.2;;;2.1;;
83646;SDS011;73609;50.134;14.376;2023-12-29T19:30:05;3.9;;;2.4;;
83646;SDS011;73609;50.134;14.376;2023-12-29T19:32:05;4.0;;;2.5;;
83646;SDS011;73609;50.134;14.376;2023-12-29T19:34:05;4.1;;;2.6;;
83646;SDS011;73609;50.134;14.376;2023-12-29T19:36:06;4.6;;;2.6;;
83646;SDS011;73609;50.134;14.376;2023-12-29T19:38:05;4.4;;;2.8;;
83646;SDS011;73609;50.134;14.376;2023-12-29T19:40:05;3.6;;;2.4;;
83646;SDS011;73609;50.134;14.376;2023-12-29T19:42:05;3.7;;;2.3;;
83646;SDS011;73609;50.134;14.376;2023-12-29T19:44:05;4.2;;;2.5;;
83646;SDS011;73609;50.134;14.376;2023-12-29T19:46:05;3.9;;;2.3;;
83646;SDS011;73609;50.134;14.376;2023-12-29T19:48:05;3.3;;;2.2;;
83646;SDS011;73609;50.134;14.376;2023-12-29T19:50:05;3.7;;;2.3;;
83646;SDS011;73609;50.134;14.376;2023-12-29T19:52:05;3.8;;;2.5;;
83646;SDS011;73609;50.134;14.376;2023-12-29T19:54:05;5.3;;;3.2;;
83646;SDS011;73609;50.134;14.376;2023-12-29T19:56:05;4.5;;;3.0;;